Hauptseite
METAR-TAF:

METAR-TAF

Flughäfen :

Hawarden, Wales

Hawarden Airport

Breite: 53-10N, Länge: 002-59W, Höhe: 10 m

Beobachtung

Neuester Wetterbericht von vor 10 Stunden und 7 Minuten, um 20:50 UTC
Wind 8 kt aus West, variierte zwischen West/Südwest und West/Nordwest
Temperatur 5°C
Luftfeuchtigkeit 75%
Luftdruck 1006 hPa
Sichtweite 10 km oder mehr
Leicht bewölkt in der Höhe von 1400 ft

METAR: EGNR 192050Z 27008KT 240V300 9999 FEW014 05/01 Q1006

Zeit: 06:57 (06:57 UTC)

Prognose

Neuester Wetterbericht von vor 13 Stunden und 54 Minuten, um 17:03 UTC
Gültige Prognose vom 19 um 18 UTC bis 19 um 21 UTC
Wind 8 kt aus West/Südwest
Sichtweite 10 km oder mehr
Leicht bewölkt in der Höhe von 3000 ft

TAF: EGNR 191703Z 1918/1921 24008KT 9999 FEW030

Wetterbeobachtungen und Prognosen von mehr als 4000 Flughäfen (METAR und TAF Bericht).

Die verfügbaren Stationen werden durch gelbe und rote Markierungen auf der Karte dargestellt.

Führen Sie die Maus auf sie, um den Namen der Station zu sehen.

Darauf klicken, um die Beobachtung von Wetterbeobachtungen und Prognosen zu sehen.

Um die Karte zu ändern : klicken Sie auf den grünen Tasten mit einem schwarzen Kreuz Zum Vergrößern, auf den grünen Button mit einem Gedankenstrich zu verkleinern, oder auf die grünen Pfeile für benachbarte Karten.


METAR-TAF: